Flight Track Log - Related Links

Times and Time Zones

All times are in EDT time to prevent confusion due to time zone crossing. See the UAL481 flight status page for this flight to view local times or setup timezone preferences in your user account.

Time Position Orientation Groundspeed Altitude Reporting Facility
EDT Latitude Longitude Course Direction KTS MPH feet Rate Location/Type
Wed 11:50:28 PM 41.9833 -87.9833 261° West 181 208 2,700  Level Chicago TRACON
Wed 11:51:22 PM 41.9833 -88.0500 270° West 236 272 4,100 1,950 Climbing Chicago TRACON
Wed 11:52:00 PM 41.9333 -88.3109 270° West  Level FlightAware Approximate
Wed 11:52:28 PM 41.9783 -88.1519 266° West 265 305 6,600  Level Chicago Center
Wed 11:53:00 PM 41.9167 -88.4480 270° West  Level FlightAware Approximate
Wed 11:53:30 PM 41.9700 -88.2561 264° West 281 323 9,500  Level Chicago Center
Wed 11:54:00 PM 41.9026 -88.5865 261° West  Level FlightAware Approximate
Wed 11:54:31 PM 41.9611 -88.3867 265° West 295 339 11,700  Level Chicago Center
Wed 11:55:00 PM 41.8863 -88.7248 261° West  Level FlightAware Approximate
Wed 11:55:32 PM 41.9528 -88.5183 265° West 350 403 13,500  Level Chicago Center
Wed 11:56:34 PM 41.9464 -88.6531 266° West 365 420 15,900 2,195 Climbing Chicago Center
Wed 11:57:35 PM 41.9386 -88.7858 266° West 363 418 18,000 1,770 Climbing Chicago Center
Wed 11:58:36 PM 41.9317 -88.9250 266° West 375 432 19,500 1,707 Climbing Chicago Center
Wed 11:59:38 PM 41.9219 -89.0678 265° West 385 443 21,500 1,659 Climbing Chicago Center
Thu 12:00:39 AM 41.9103 -89.2400 265° West 391 450 22,900 1,426 Climbing Chicago Center
Thu 12:01:40 AM 41.9000 -89.3869 265° West 396 456 24,400 1,317 Climbing Chicago Center
Thu 12:02:42 AM 41.8900 -89.5353 265° West 401 461 25,600 927 Climbing Chicago Center
Thu 12:03:43 AM 41.8789 -89.6889 265° West 411 473 26,300 639 Climbing Chicago Center
Thu 12:04:44 AM 41.8711 -89.8500 266° West 433 498 26,900 836 Climbing Chicago Center
Thu 12:05:45 AM 41.8619 -90.0175 266° West 444 511 28,000 1,082 Climbing Chicago Center
Thu 12:06:46 AM 41.8519 -90.1828 265° West 447 514 29,100 1,220 Climbing Chicago Center
Thu 12:07:48 AM 41.8425 -90.3467 266° West 446 513 30,500 1,220 Climbing Chicago Center
Thu 12:08:49 AM 41.8328 -90.5067 265° West 436 502 31,600 1,180 Climbing Chicago Center
Thu 12:09:50 AM 41.8175 -90.7089 264° West 458 527 32,900 1,328 Climbing Chicago Center
Thu 12:10:51 AM 41.8081 -90.8650 265° West 432 497 34,300 1,033 Climbing Chicago Center
Thu 12:11:52 AM 41.7972 -91.0208 265° West 424 488 35,000 780 Climbing Chicago Center
Thu 12:12:54 AM 41.7864 -91.1775 265° West 425 489 35,900 488 Climbing Chicago Center
Thu 12:13:55 AM 41.7753 -91.3286 264° West 417 480 36,000 49 Climbing Chicago Center
Thu 12:14:56 AM 41.7650 -91.4833 265° West 417 480 36,000 -49 Level Chicago Center
Thu 12:15:57 AM 41.7542 -91.6378 265° West 419 482 35,900  Descending Chicago Center
Thu 12:16:58 AM 41.7425 -91.7883 264° West 412 474 36,000  Climbing Chicago Center
Thu 12:17:59 AM 41.7317 -91.9408 265° West 413 475 35,900 -49 Descending Chicago Center
Thu 12:19:00 AM 41.7194 -92.0933 264° West 413 475 35,900 49 Level Chicago Center
Thu 12:20:01 AM 41.7075 -92.2481 264° West 421 484 36,000 49 Climbing Chicago Center
Thu 12:21:02 AM 41.6925 -92.4350 264° West 424 488 36,000  Level Chicago Center
Thu 12:22:03 AM 41.6806 -92.5892 264° West 422 486 36,000  Level Chicago Center
Thu 12:23:04 AM 41.6672 -92.7444 263° West 423 487 36,000  Level Chicago Center
Thu 12:24:05 AM 41.6525 -92.9172 264° West 427 491 36,000 -49 Level Chicago Center
Thu 12:25:07 AM 41.6389 -93.0708 263° West 424 488 35,900 -47 Descending Chicago Center
Thu 12:26:12 AM 41.6269 -93.2256 264° West 423 487 35,900 48 Level Minneapolis Center
Thu 12:27:13 AM 41.6125 -93.3806 263° West 424 488 36,000 49 Climbing Minneapolis Center
Thu 12:28:14 AM 41.5969 -93.5631 264° West 421 484 36,000 -49 Level Minneapolis Center
Thu 12:29:15 AM 41.5842 -93.7142 264° West 416 479 35,900 -49 Descending Minneapolis Center
Thu 12:30:16 AM 41.5694 -93.8692 263° West 421 484 35,900 49 Level Minneapolis Center
Thu 12:31:17 AM 41.5553 -94.0236 263° West 423 487 36,000  Climbing Minneapolis Center
Thu 12:32:18 AM 41.5419 -94.1767 263° West 422 486 35,900 -49 Descending Minneapolis Center
Thu 12:33:19 AM 41.5244 -94.3517 262° West 424 488 35,900 49 Level Minneapolis Center
Thu 12:34:20 AM 41.5094 -94.5086 263° West 425 489 36,000 49 Climbing Minneapolis Center
Thu 12:35:21 AM 41.4928 -94.6647 262° West 425 489 36,000  Level Minneapolis Center
Thu 12:36:23 AM 41.4772 -94.8208 262° West 425 489 36,000 -49 Level Minneapolis Center
Thu 12:37:24 AM 41.4600 -94.9750 262° West 422 486 35,900  Descending Minneapolis Center
Thu 12:38:24 AM 41.4439 -95.1303 262° West 422 486 36,000 50 Climbing Minneapolis Center
Thu 12:39:25 AM 41.4269 -95.2856 262° West 423 487 36,000 -49 Level Minneapolis Center
Thu 12:40:26 AM 41.4108 -95.4408 262° West 421 484 35,900 -49 Descending Minneapolis Center
Thu 12:41:28 AM 41.3936 -95.5944 262° West 421 484 35,900 49 Level Minneapolis Center
Thu 12:42:29 AM 41.3764 -95.7603 262° West 428 493 36,000 49 Climbing Minneapolis Center
Thu 12:43:30 AM 41.3592 -95.9142 262° West 423 487 36,000  Level Minneapolis Center
Thu 12:44:31 AM 41.3422 -96.0700 262° West 424 488 36,000 -50 Level Minneapolis Center
Thu 12:45:31 AM 41.3236 -96.2253 261° West 424 488 35,900 -50 Descending Minneapolis Center
Thu 12:46:32 AM 41.3058 -96.3869 262° West 425 489 35,900 49 Level Minneapolis Center
Thu 12:47:33 AM 41.2875 -96.5433 261° West 426 490 36,000 49 Climbing Minneapolis Center
Thu 12:48:34 AM 41.2683 -96.6994 261° West 426 490 36,000  Level Minneapolis Center
Thu 12:49:35 AM 41.2497 -96.8550 261° West 428 493 36,000  Level Minneapolis Center
Thu 12:50:36 AM 41.2311 -97.0111 261° West 427 491 36,000 -49 Level Minneapolis Center
Thu 12:51:37 AM 41.2119 -97.1675 261° West 428 493 35,900 -49 Descending Minneapolis Center
Thu 12:52:38 AM 41.1889 -97.3544 261° West 428 493 35,900 49 Level Minneapolis Center
Thu 12:53:39 AM 41.1692 -97.5058 260° West 430 495 36,000  Climbing Minneapolis Center
Thu 12:54:40 AM 41.1489 -97.6631 260° West 431 496 35,900  Descending Minneapolis Center
Thu 12:55:41 AM 41.1297 -97.8203 261° West 431 496 36,000 49 Climbing Minneapolis Center
Thu 12:56:42 AM 41.1097 -97.9781 261° West 433 498 36,000  Level Minneapolis Center
Thu 12:57:42 AM 41.0881 -98.1350 260° West 433 498 36,000  Level Minneapolis Center
Thu 12:58:44 AM 41.0675 -98.2925 260° West 433 498 36,000  Level Minneapolis Center
Thu 12:59:44 AM 41.0486 -98.4542 261° West 434 499 36,000  Level Minneapolis Center
Thu 01:00:45 AM 41.0311 -98.6125 262° West 434 499 36,000  Level Minneapolis Center
Thu 01:01:46 AM 41.0139 -98.7742 262° West 438 504 36,000 -59 Level Minneapolis Center
Thu 01:02:27 AM 40.9992 -98.8906 261° West 445 512 35,900 -59 Descending Denver Center
Thu 01:03:28 AM 40.9831 -99.0431 262° West 440 506 35,900 49 Level Denver Center
Thu 01:04:29 AM 40.9656 -99.1986 262° West 440 506 36,000 49 Climbing Denver Center
Thu 01:05:31 AM 40.9428 -99.3919 261° West 442 509 36,000  Level Denver Center
Thu 01:06:32 AM 40.9239 -99.5528 261° West 442 509 36,000 -49 Level Denver Center
Thu 01:07:33 AM 40.9039 -99.7119 261° West 441 507 35,900  Descending Denver Center
Thu 01:08:34 AM 40.8808 -99.8594 258° West 441 507 36,000 49 Climbing Denver Center
Thu 01:09:35 AM 40.8539 -100.0375 259° West 442 509 36,000  Level Denver Center
Thu 01:10:37 AM 40.8300 -100.1883 258° West 441 507 36,000  Level Denver Center
Thu 01:11:38 AM 40.8072 -100.3414 259° West 442 509 36,000  Level Denver Center
Thu 01:12:39 AM 40.7792 -100.5183 258° West 438 504 36,000 -49 Level Denver Center
Thu 01:13:40 AM 40.7514 -100.6703 256° West 446 513 35,900  Descending Denver Center
Thu 01:14:41 AM 40.7261 -100.8331 258° West 461 531 36,000 49 Climbing Denver Center
Thu 01:15:42 AM 40.7025 -100.9867 259° West 445 512 36,000 -49 Level Denver Center
Thu 01:16:44 AM 40.6756 -101.1622 259° West 440 506 35,900 -49 Descending Denver Center
Thu 01:17:45 AM 40.6506 -101.3150 258° West 444 511 35,900 50 Level Denver Center
Thu 01:18:45 AM 40.6208 -101.4922 258° West 444 511 36,000 50 Climbing Denver Center
Thu 01:19:46 AM 40.5958 -101.6439 258° West 444 511 36,000  Level Denver Center
Thu 01:20:47 AM 40.5714 -101.7953 258° West 442 509 36,000 -49 Level Denver Center
Thu 01:21:48 AM 40.5411 -101.9722 257° West 444 511 35,900 -49 Descending Denver Center
Thu 01:22:49 AM 40.5131 -102.1225 256° West 444 511 35,900 49 Level Denver Center
Thu 01:23:50 AM 40.4858 -102.2747 257° West 447 514 36,000 49 Climbing Denver Center
Thu 01:24:51 AM 40.4567 -102.4531 258° West 447 514 36,000  Level Denver Center
Thu 01:25:52 AM 40.4278 -102.6047 256° West 447 514 36,000 -246 Level Denver Center
Thu 01:26:53 AM 40.4006 -102.7617 257° West 448 516 35,500 -1,820 Descending Denver Center
Thu 01:27:54 AM 40.3719 -102.9186 257° West 445 512 32,300 -3,492 Descending Denver Center
Thu 01:28:55 AM 40.3425 -103.0836 257° West 462 532 28,400 -3,246 Descending Denver Center
Thu 01:29:56 AM 40.3181 -103.2153 256° West 468 539 25,700 -3,197 Descending Denver Center
Thu 01:30:57 AM 40.2825 -103.4086 257° West 456 525 21,900 -3,246 Descending Denver Center
Thu 01:31:58 AM 40.2494 -103.5889 257° West 427 491 19,100 -2,016 Descending Denver Center
Thu 01:32:59 AM 40.2256 -103.7156 256° West 357 411 17,800 -934 Descending Denver Center
Thu 01:34:00 AM 40.2044 -103.8272 256° West 322 371 17,200 -885 Descending Denver Center
Thu 01:35:01 AM 40.2083 -103.9386 273° West 314 361 16,000 -1,230 Descending Denver Center
Thu 01:36:02 AM 40.2189 -104.0500 277° West 310 357 14,700 -1,279 Descending Denver Center
Thu 01:37:03 AM 40.2292 -104.1622 277° West 312 359 13,400 -1,279 Descending Denver Center
Thu 01:38:04 AM 40.2389 -104.2697 277° West 304 350 12,100 -1,091 Descending Denver Center
Thu 01:39:04 AM 40.2486 -104.3786 277° West 303 349 11,200 -992 Descending Denver Center
Thu 01:40:05 AM 40.2272 -104.4775 254° West 295 339 10,100 -1,230 Descending Denver Center
Thu 01:41:06 AM 40.1875 -104.5594 238° Southwest 286 329 8,700 -1,082 Descending Denver Center
Thu 01:42:07 AM 40.1186 -104.6006 205° Southwest 277 319 7,900 -393 Descending Denver Center
Thu 01:43:08 AM 40.0594 -104.6372 205° Southwest 256 295 7,900  Level Denver Center

Login

Don't have an account? Register now (free) for customized features, flight alerts, and more!